Time;durP1;ratioP1;P1;durP2;ratioP2;P2;SDS_P1;SDS_P2;PMS_P1;PMS_P2;Temp;Humidity;BMP_temperature;BMP_pressure;BME280_temperature;BME280_humidity;BME280_pressure;Samples;Min_cycle;Max_cycle;Signal;HPM_P1;HPM_P2
2023/08/08 00:00:29;;;;;;;6.35;4.45;;;;;;;22.36;60.01;98470.38;4938908;28;20055;-63
2023/08/08 00:02:55;;;;;;;7.20;4.63;;;;;;;22.31;60.34;98472.94;4936416;28;20035;-63
2023/08/08 00:05:21;;;;;;;7.55;4.32;;;;;;;22.37;60.16;98478.31;4934900;28;20506;-63
2023/08/08 00:07:49;;;;;;;4.88;3.90;;;;;;;22.36;60.33;98479.38;4934286;28;20050;-63
2023/08/08 00:10:14;;;;;;;8.52;4.18;;;;;;;22.36;60.20;98465.78;4936243;28;20067;-63
2023/08/08 00:12:39;;;;;;;6.22;4.00;;;;;;;22.27;60.70;98471.66;4935974;28;20053;-63
2023/08/08 00:15:05;;;;;;;7.30;5.40;;;;;;;22.21;60.56;98478.81;4935808;28;20055;-63
2023/08/08 00:17:32;;;;;;;6.43;4.43;;;;;;;22.34;59.92;98459.78;4935340;28;20533;-62
2023/08/08 00:19:58;;;;;;;7.65;4.13;;;;;;;22.37;59.98;98461.19;4934259;28;20051;-61
2023/08/08 00:22:24;;;;;;;6.55;4.40;;;;;;;22.38;59.73;98463.72;4935839;28;20035;-62
2023/08/08 00:24:51;;;;;;;5.13;4.10;;;;;;;22.32;60.28;98444.72;4918671;28;20541;-63
2023/08/08 00:27:18;;;;;;;6.80;4.40;;;;;;;22.23;60.46;98440.59;4937329;28;20399;-61
2023/08/08 00:29:45;;;;;;;6.15;4.60;;;;;;;22.22;60.53;98437.03;4938360;28;20046;-63
2023/08/08 00:32:12;;;;;;;6.63;4.32;;;;;;;22.35;59.94;98428.00;4938373;28;20039;-62
2023/08/08 00:34:37;;;;;;;7.35;4.85;;;;;;;22.33;59.86;98422.78;4940805;28;20055;-62
2023/08/08 00:37:03;;;;;;;6.43;4.63;;;;;;;22.52;59.19;98426.47;4935814;28;20402;-63
2023/08/08 00:39:28;;;;;;;13.80;4.63;;;;;;;22.40;59.26;98417.34;4937946;28;20057;-62
2023/08/08 00:44:43;;;;;;;8.15;5.47;;;;;;;22.27;60.31;98414.66;4918378;28;20436;-61
2023/08/08 00:47:10;;;;;;;6.15;4.32;;;;;;;22.23;60.11;98429.72;4920646;28;20046;-61
2023/08/08 00:50:02;;;;;;;7.88;4.28;;;;;;;22.22;60.28;98419.91;4935753;28;20604;-60
2023/08/08 00:52:29;;;;;;;7.32;4.07;;;;;;;22.08;60.82;98398.22;4935335;28;20039;-63
2023/08/08 00:55:01;;;;;;;7.47;4.63;;;;;;;22.06;60.68;98394.06;4935130;28;20050;-63
2023/08/08 00:57:29;;;;;;;6.05;4.57;;;;;;;22.13;60.33;98407.59;4935351;28;20038;-63
2023/08/08 00:59:55;;;;;;;11.45;5.85;;;;;;;22.00;60.80;98405.78;4935238;28;20046;-61
2023/08/08 01:02:22;;;;;;;5.65;4.32;;;;;;;22.05;60.55;98419.53;4933667;28;20109;-62
2023/08/08 01:04:49;;;;;;;9.65;4.30;;;;;;;22.06;60.44;98448.34;4933375;28;20050;-62
2023/08/08 01:07:30;;;;;;;5.40;4.35;;;;;;;22.16;60.43;98426.19;4935772;28;20054;-61
2023/08/08 01:10:17;;;;;;;4.80;4.00;;;;;;;22.25;59.78;98425.72;4951124;28;20055;-61
2023/08/08 01:12:46;;;;;;;6.70;4.65;;;;;;;22.30;59.64;98400.66;4934852;28;20053;-61
2023/08/08 01:15:13;;;;;;;8.40;3.92;;;;;;;22.33;59.54;98417.38;4937266;28;20049;-61
2023/08/08 01:18:06;;;;;;;11.43;4.55;;;;;;;22.21;59.95;98404.66;4935714;28;20057;-61
2023/08/08 01:20:33;;;;;;;10.23;5.05;;;;;;;22.35;59.79;98406.25;4936808;28;20050;-62
2023/08/08 01:23:23;;;;;;;6.38;5.22;;;;;;;22.20;60.51;98397.56;4935392;28;20051;-61
2023/08/08 01:25:51;;;;;;;6.20;4.05;;;;;;;22.19;60.58;98356.00;4933541;28;20062;-61
2023/08/08 01:28:23;;;;;;;7.00;5.03;;;;;;;22.04;61.17;98407.00;4935570;28;20556;-63
2023/08/08 01:30:51;;;;;;;5.78;4.88;;;;;;;22.05;61.29;98389.66;4936656;28;20536;-61
2023/08/08 01:33:22;;;;;;;9.45;5.32;;;;;;;22.11;60.55;98396.13;4936716;28;20043;-64
2023/08/08 01:35:53;;;;;;;5.97;4.85;;;;;;;21.86;61.53;98401.38;4949291;28;20395;-63
2023/08/08 01:38:39;;;;;;;5.72;5.03;;;;;;;21.90;61.98;98397.19;4934885;28;20425;-63
2023/08/08 01:41:07;;;;;;;6.05;4.63;;;;;;;21.73;62.40;98391.38;4936565;28;20130;-62
2023/08/08 01:43:37;;;;;;;8.75;5.32;;;;;;;21.67;62.51;98389.53;4936946;28;20054;-64
2023/08/08 01:46:05;;;;;;;8.30;5.93;;;;;;;21.69;62.76;98360.28;4949409;28;20054;-64
2023/08/08 01:48:34;;;;;;;7.50;4.72;;;;;;;21.70;62.60;98399.94;4929287;28;20049;-66
2023/08/08 01:50:59;;;;;;;7.18;5.40;;;;;;;21.76;62.35;98393.69;4919885;28;20054;-65
2023/08/08 01:53:25;;;;;;;10.75;5.78;;;;;;;21.74;62.59;98390.34;4936996;28;20505;-65
2023/08/08 01:55:52;;;;;;;6.32;5.28;;;;;;;21.62;62.84;98392.88;4935001;28;20081;-66
2023/08/08 01:58:18;;;;;;;8.40;5.78;;;;;;;21.62;63.17;98424.56;4936991;28;20046;-65
2023/08/08 02:00:46;;;;;;;9.65;5.00;;;;;;;21.63;63.21;98409.97;4935126;28;20042;-65
2023/08/08 02:03:15;;;;;;;6.85;5.40;;;;;;;21.60;63.61;98416.66;4936820;28;20049;-65
2023/08/08 02:06:08;;;;;;;9.48;6.43;;;;;;;21.34;64.57;98405.78;4936739;28;20057;-62
2023/08/08 02:08:39;;;;;;;7.88;5.95;;;;;;;21.09;65.87;98402.84;4933662;28;20046;-64
2023/08/08 02:11:05;;;;;;;8.48;5.70;;;;;;;20.93;66.64;98431.16;4937001;28;20417;-62
2023/08/08 02:13:30;;;;;;;14.65;5.75;;;;;;;20.94;67.05;98413.03;4934737;28;20047;-63
2023/08/08 02:15:56;;;;;;;6.80;5.50;;;;;;;21.06;66.54;98427.66;4934099;28;20067;-66
2023/08/08 02:18:25;;;;;;;6.40;5.10;;;;;;;21.11;66.21;98421.59;4935036;28;20051;-70
2023/08/08 02:21:19;;;;;;;9.23;6.53;;;;;;;21.11;66.74;98427.84;4936883;28;20413;-68
2023/08/08 02:23:44;;;;;;;6.50;5.22;;;;;;;21.01;67.28;98422.00;4928722;28;20043;-66
2023/08/08 02:26:09;;;;;;;8.70;5.38;;;;;;;21.10;66.82;98412.66;4936439;28;20063;-68
2023/08/08 02:28:36;;;;;;;8.07;5.40;;;;;;;20.89;67.13;98418.22;4935922;28;20043;-67
2023/08/08 02:31:02;;;;;;;8.98;5.53;;;;;;;20.86;67.72;98418.66;4936589;28;20042;-70
2023/08/08 02:33:28;;;;;;;8.60;5.57;;;;;;;20.92;67.71;98369.03;4919408;28;20047;-70
2023/08/08 02:35:53;;;;;;;8.70;5.80;;;;;;;20.67;68.24;98406.69;4930633;28;20058;-70
2023/08/08 02:38:18;;;;;;;9.25;5.40;;;;;;;20.65;68.66;98406.09;4902270;28;20062;-69
2023/08/08 02:40:44;;;;;;;7.95;5.40;;;;;;;20.76;68.35;98418.22;4935417;28;20529;-67
2023/08/08 02:43:11;;;;;;;10.27;5.63;;;;;;;20.69;68.25;98418.16;4935744;28;20498;-70
2023/08/08 02:46:03;;;;;;;6.82;5.15;;;;;;;20.71;68.25;98421.50;4936404;28;20051;-70
2023/08/08 02:48:36;;;;;;;12.68;6.20;;;;;;;20.78;67.73;98418.81;4936232;28;20052;-71
2023/08/08 02:51:01;;;;;;;9.65;6.45;;;;;;;20.77;67.83;98411.75;4936273;28;20498;-68
2023/08/08 02:53:27;;;;;;;8.93;5.95;;;;;;;20.80;67.76;98417.56;4935546;28;20047;-69
2023/08/08 02:55:52;;;;;;;10.85;5.07;;;;;;;20.89;67.45;98440.72;4935433;28;20540;-69
2023/08/08 02:58:18;;;;;;;11.32;5.95;;;;;;;20.98;67.11;98420.56;4936388;28;20058;-69
2023/08/08 03:00:50;;;;;;;8.35;5.57;;;;;;;21.02;67.06;98429.91;4935492;28;20051;-69
2023/08/08 03:06:10;;;;;;;12.77;5.88;;;;;;;21.06;66.32;98414.09;4936541;28;20047;-70
2023/08/08 03:08:38;;;;;;;12.05;5.18;;;;;;;21.14;66.08;98421.19;4919304;28;20043;-70
2023/08/08 03:11:08;;;;;;;9.77;5.13;;;;;;;21.07;66.08;98428.47;4931434;28;20047;-70
2023/08/08 03:13:38;;;;;;;7.18;5.45;;;;;;;21.05;66.07;98427.84;4931405;28;20050;-71
2023/08/08 03:16:05;;;;;;;8.10;5.53;;;;;;;20.95;66.18;98433.66;4915668;29;20062;-70
2023/08/08 03:18:32;;;;;;;10.98;5.20;;;;;;;20.87;66.67;98420.31;4917631;29;20449;-69
2023/08/08 03:20:57;;;;;;;10.60;5.55;;;;;;;21.02;66.26;98427.22;4916258;29;20047;-71
2023/08/08 03:23:23;;;;;;;11.45;5.63;;;;;;;21.06;66.26;98441.19;4917196;29;20047;-71
2023/08/08 03:25:51;;;;;;;6.40;5.03;;;;;;;21.26;65.79;98463.78;4915772;29;20509;-70
2023/08/08 03:28:18;;;;;;;6.53;5.30;;;;;;;21.44;65.35;98443.38;4930301;28;20051;-71
2023/08/08 03:30:46;;;;;;;9.00;5.90;;;;;;;21.54;65.17;98433.78;4939745;28;20438;-71
2023/08/08 03:33:17;;;;;;;8.32;5.07;;;;;;;21.70;65.35;98437.91;4938520;28;20057;-70
2023/08/08 03:35:43;;;;;;;11.68;4.97;;;;;;;21.79;64.43;98442.06;4922566;28;20670;-70
2023/08/08 03:38:15;;;;;;;7.28;5.05;;;;;;;21.83;64.71;98432.47;4939905;28;20474;-70
2023/08/08 03:40:42;;;;;;;6.38;5.07;;;;;;;21.90;63.68;98444.16;4938726;28;20046;-70
2023/08/08 03:43:07;;;;;;;8.07;5.15;;;;;;;21.86;63.51;98428.53;4938755;28;20042;-68
2023/08/08 03:45:32;;;;;;;8.85;5.00;;;;;;;21.75;63.89;98435.41;4938242;28;20047;-70
2023/08/08 03:47:58;;;;;;;6.35;5.57;;;;;;;21.76;63.96;98441.69;4921978;28;20425;-69
2023/08/08 03:50:50;;;;;;;8.57;6.00;;;;;;;21.73;64.11;98448.34;4939479;28;20866;-71
2023/08/08 03:53:16;;;;;;;6.57;5.10;;;;;;;21.71;64.18;98439.59;4938301;28;20050;-70
2023/08/08 03:55:41;;;;;;;10.10;5.65;;;;;;;21.76;63.74;98442.50;4938191;28;20038;-70
2023/08/08 03:58:06;;;;;;;8.68;5.72;;;;;;;21.72;63.46;98469.22;4938001;28;20520;-70
2023/08/08 04:00:34;;;;;;;9.23;5.25;;;;;;;21.62;64.28;98454.41;4939329;28;20050;-70
2023/08/08 04:03:26;;;;;;;8.95;5.07;;;;;;;21.58;64.45;98451.28;4939425;28;20039;-70
2023/08/08 04:05:52;;;;;;;6.22;5.20;;;;;;;21.62;64.33;98478.81;4944618;28;20047;-68
2023/08/08 04:08:18;;;;;;;9.80;5.70;;;;;;;21.57;64.48;98465.88;4943212;28;20042;-69
2023/08/08 04:10:47;;;;;;;9.98;5.10;;;;;;;21.52;65.02;98494.69;4938837;28;20410;-69
2023/08/08 04:13:16;;;;;;;7.70;5.55;;;;;;;21.55;65.27;98461.72;4948259;28;20043;-69
2023/08/08 04:15:41;;;;;;;7.65;5.13;;;;;;;21.52;65.41;98456.72;4949423;28;20058;-69
2023/08/08 04:18:09;;;;;;;8.13;5.20;;;;;;;21.32;65.86;98457.53;4941497;28;20524;-68
2023/08/08 04:20:34;;;;;;;8.98;5.18;;;;;;;21.27;66.11;98454.59;4940326;28;20445;-69
2023/08/08 04:23:01;;;;;;;11.20;5.65;;;;;;;21.19;66.55;98462.94;4938661;28;20093;-70
2023/08/08 04:25:51;;;;;;;10.32;5.80;;;;;;;21.33;66.64;98464.59;4939444;28;20529;-70
2023/08/08 04:28:21;;;;;;;8.63;6.00;;;;;;;21.11;66.92;98471.22;4933692;28;20039;-70
2023/08/08 04:30:46;;;;;;;6.22;4.95;;;;;;;21.15;67.06;98467.06;4919459;29;20058;-70
2023/08/08 04:33:12;;;;;;;9.90;5.80;;;;;;;21.21;67.00;98454.59;4925364;28;20441;-69
2023/08/08 04:35:39;;;;;;;8.38;4.63;;;;;;;21.33;66.76;98470.03;4938658;28;20399;-70
2023/08/08 04:40:55;;;;;;;7.13;5.00;;;;;;;21.42;65.90;98462.56;4937832;28;20050;-70
2023/08/08 04:43:20;;;;;;;7.53;4.95;;;;;;;21.41;65.94;98468.16;4938673;28;20043;-70
2023/08/08 04:45:51;;;;;;;7.70;5.10;;;;;;;21.27;66.28;98489.00;4938523;28;20047;-70
2023/08/08 04:48:17;;;;;;;12.15;6.65;;;;;;;21.25;66.52;98472.94;4938468;28;20516;-70
2023/08/08 04:50:50;;;;;;;8.43;4.97;;;;;;;21.40;65.88;98469.22;4938139;28;20058;-69
2023/08/08 04:53:15;;;;;;;10.55;5.15;;;;;;;21.23;66.14;98472.31;4936906;28;20043;-71
2023/08/08 04:55:40;;;;;;;7.55;5.10;;;;;;;21.11;66.51;98464.94;4936406;28;20046;-71
2023/08/08 04:58:11;;;;;;;7.60;4.85;;;;;;;21.11;66.83;98473.91;4938300;28;20054;-70
2023/08/08 05:00:36;;;;;;;8.32;5.15;;;;;;;21.13;66.97;98469.13;4938187;28;20042;-70
2023/08/08 05:03:03;;;;;;;7.18;5.43;;;;;;;21.20;66.97;98501.72;4936981;28;20050;-70
2023/08/08 05:05:28;;;;;;;10.75;6.22;;;;;;;21.30;66.85;98467.75;4938251;28;20042;-70
2023/08/08 05:07:53;;;;;;;7.22;5.10;;;;;;;21.39;67.20;98484.66;4938003;28;20490;-70
2023/08/08 05:10:21;;;;;;;9.38;5.60;;;;;;;21.48;67.04;98494.25;4938284;28;20043;-70
2023/08/08 05:12:50;;;;;;;6.88;4.78;;;;;;;21.47;67.06;98495.28;4936519;28;20050;-70
2023/08/08 05:18:10;;;;;;;6.47;4.78;;;;;;;21.47;67.20;98508.00;4936192;28;20524;-69
2023/08/08 05:20:37;;;;;;;8.63;6.07;;;;;;;21.44;67.28;98495.72;4937783;28;20402;-70
2023/08/08 05:23:04;;;;;;;9.18;5.40;;;;;;;21.37;67.43;98489.44;4936270;28;20601;-70
2023/08/08 05:25:29;;;;;;;9.00;6.18;;;;;;;21.43;67.50;98507.59;4937257;28;20046;-69
2023/08/08 05:27:59;;;;;;;9.45;5.72;;;;;;;21.71;67.22;98491.97;4937644;28;20050;-71
2023/08/08 05:30:29;;;;;;;6.38;5.10;;;;;;;22.05;66.91;98492.81;4937668;28;20042;-72
2023/08/08 05:32:57;;;;;;;8.27;4.85;;;;;;;22.37;65.83;98474.78;4936398;28;20049;-71
2023/08/08 05:35:22;;;;;;;9.48;5.10;;;;;;;22.53;65.03;98498.75;4936519;28;20061;-72
2023/08/08 05:37:47;;;;;;;13.25;6.10;;;;;;;22.60;64.22;98482.44;4938432;28;20631;-71
2023/08/08 05:40:13;;;;;;;7.70;5.53;;;;;;;22.77;64.15;98491.81;4937617;28;20054;-70
2023/08/08 05:45:31;;;;;;;8.85;4.88;;;;;;;23.43;62.57;98484.13;4937374;28;20067;-71
2023/08/08 05:48:01;;;;;;;10.35;5.78;;;;;;;23.88;61.32;98486.72;4936217;28;20049;-73
2023/08/08 05:50:30;;;;;;;10.30;5.28;;;;;;;24.41;59.81;98486.22;4936282;28;20046;-70
2023/08/08 05:52:55;;;;;;;7.45;5.07;;;;;;;25.00;58.48;98484.72;4935500;28;20059;-70
2023/08/08 05:55:21;;;;;;;10.18;5.88;;;;;;;25.31;57.23;98473.56;4935688;28;20046;-71
2023/08/08 05:57:46;;;;;;;6.65;5.55;;;;;;;25.42;57.10;98500.03;4936507;28;20051;-70
2023/08/08 06:00:11;;;;;;;9.13;5.72;;;;;;;24.98;56.25;98493.13;4937633;28;20051;-69
2023/08/08 06:02:41;;;;;;;14.98;5.88;;;;;;;24.48;57.49;98493.28;4937649;28;20418;-70
2023/08/08 06:05:07;;;;;;;10.68;6.10;;;;;;;24.15;58.06;98493.56;4921757;28;20054;-69
2023/08/08 06:07:32;;;;;;;6.75;5.72;;;;;;;23.87;58.05;98495.94;4935445;28;20061;-70
2023/08/08 06:09:58;;;;;;;7.53;5.70;;;;;;;23.59;58.80;98493.66;4936632;28;20650;-71
2023/08/08 06:12:25;;;;;;;9.55;6.47;;;;;;;23.44;59.38;98507.56;4936366;28;20073;-70
2023/08/08 06:18:09;;;;;;;10.38;5.35;;;;;;;23.65;59.55;98451.13;4936926;28;20054;-71
2023/08/08 06:20:41;;;;;;;10.15;6.40;;;;;;;23.95;59.36;98495.66;4936844;28;20058;-72
2023/08/08 06:23:10;;;;;;;9.90;5.68;;;;;;;24.06;58.97;98494.09;4936655;28;20134;-71
2023/08/08 06:25:35;;;;;;;15.90;6.05;;;;;;;24.18;58.17;98498.56;4936035;28;20050;-69
2023/08/08 06:28:04;;;;;;;7.60;5.70;;;;;;;24.43;58.49;98522.25;4936704;28;20387;-71
2023/08/08 06:33:28;;;;;;;8.30;5.50;;;;;;;24.64;58.08;98491.00;4936714;28;20043;-70
2023/08/08 06:35:54;;;;;;;8.60;6.05;;;;;;;24.75;57.74;98504.69;4936668;28;20058;-70
2023/08/08 06:38:25;;;;;;;11.02;6.40;;;;;;;25.35;56.64;98491.13;4936981;28;20050;-71
2023/08/08 06:41:18;;;;;;;12.63;5.47;;;;;;;27.81;53.03;98422.09;4936695;28;20046;-70
2023/08/08 06:43:45;;;;;;;12.85;6.95;;;;;;;29.53;48.55;98428.94;4948800;28;20041;-71
2023/08/08 06:46:11;;;;;;;9.82;6.65;;;;;;;30.17;46.25;98431.66;4936752;28;20053;-69
2023/08/08 06:48:36;;;;;;;13.02;6.85;;;;;;;30.26;44.73;98430.03;4936910;28;20055;-70
2023/08/08 06:51:03;;;;;;;8.43;6.35;;;;;;;30.17;44.86;98461.06;4936496;28;20050;-70
2023/08/08 06:53:54;;;;;;;7.55;5.53;;;;;;;30.16;45.98;98481.38;4936479;28;20047;-70
2023/08/08 06:56:46;;;;;;;9.93;6.03;;;;;;;30.00;46.34;98491.47;4936831;28;20062;-68
2023/08/08 06:59:15;;;;;;;12.88;6.63;;;;;;;29.59;45.49;98471.00;4935011;28;20045;-68
2023/08/08 07:02:07;;;;;;;8.52;6.03;;;;;;;29.78;46.54;98494.28;4936241;28;20042;-68
2023/08/08 07:04:35;;;;;;;75.28;56.70;;;;;;;29.72;45.75;98508.22;4939791;28;20502;-68
2023/08/08 07:07:11;;;;;;;13.82;8.55;;;;;;;30.26;44.96;98522.69;4938919;28;20051;-68
2023/08/08 07:09:39;;;;;;;13.02;6.85;;;;;;;31.33;43.09;98453.34;4940098;28;20524;-67
2023/08/08 07:12:11;;;;;;;13.25;6.85;;;;;;;31.53;41.42;98501.31;4938682;28;20423;-69
2023/08/08 07:14:37;;;;;;;10.25;6.90;;;;;;;30.93;42.36;98514.59;4938683;28;20050;-70
2023/08/08 07:17:03;;;;;;;14.88;7.18;;;;;;;30.16;43.44;98506.97;4939955;28;20046;-68
2023/08/08 07:19:29;;;;;;;7.75;5.60;;;;;;;29.54;45.35;98502.03;4940003;28;20050;-68
2023/08/08 07:21:54;;;;;;;10.63;6.85;;;;;;;28.99;45.80;98507.69;4940017;28;20050;-68
2023/08/08 07:24:22;;;;;;;10.88;5.53;;;;;;;28.54;47.31;98529.84;4922205;28;20173;-68
2023/08/08 07:26:58;;;;;;;12.87;6.70;;;;;;;28.67;46.88;98507.50;4938044;28;20055;-68
2023/08/08 07:29:48;;;;;;;18.13;6.85;;;;;;;30.09;45.29;98500.88;4930609;28;20066;-69
2023/08/08 07:32:14;;;;;;;11.25;6.47;;;;;;;31.63;42.33;98436.06;4919441;29;20402;-67
2023/08/08 07:34:42;;;;;;;6.85;5.57;;;;;;;32.56;40.05;98479.81;4920347;29;20055;-68
2023/08/08 07:38:02;;;;;;;11.00;7.65;;;;;;;32.89;39.26;98496.84;4920888;29;20513;-68
2023/08/08 07:40:54;;;;;;;10.13;6.75;;;;;;;32.89;40.30;98507.88;4918716;29;20055;-67
2023/08/08 07:43:23;;;;;;;9.18;6.63;;;;;;;32.69;39.83;98515.09;4902964;29;20533;-68
2023/08/08 07:45:49;;;;;;;16.05;7.63;;;;;;;32.79;39.06;98506.81;4918389;29;20051;-68
2023/08/08 07:48:15;;;;;;;8.77;7.65;;;;;;;33.00;38.52;98515.84;4921334;28;20046;-68
2023/08/08 07:50:42;;;;;;;7.93;6.88;;;;;;;33.12;38.32;98516.34;4939475;28;20494;-69
2023/08/08 07:53:08;;;;;;;7.63;6.30;;;;;;;32.98;38.98;98520.00;4938061;28;20043;-68
2023/08/08 07:55:36;;;;;;;15.85;6.85;;;;;;;32.55;39.61;98519.53;4939264;28;20052;-67
2023/08/08 07:58:03;;;;;;;10.63;7.15;;;;;;;31.93;40.17;98517.09;4921422;28;20051;-66
2023/08/08 08:00:35;;;;;;;10.75;6.70;;;;;;;31.31;41.81;98526.31;4939068;28;20050;-69
2023/08/08 08:03:00;;;;;;;13.20;7.28;;;;;;;30.72;42.47;98518.34;4939233;28;20054;-68
2023/08/08 08:05:27;;;;;;;10.38;6.07;;;;;;;30.27;43.25;98513.34;4939006;28;20485;-67
2023/08/08 08:07:53;;;;;;;9.77;7.00;;;;;;;30.43;43.63;98517.06;4937354;28;20061;-68
2023/08/08 08:10:18;;;;;;;14.20;7.05;;;;;;;30.57;43.23;98516.34;4939023;28;20042;-66
2023/08/08 08:15:38;;;;;;;12.60;7.00;;;;;;;31.42;41.97;98510.66;4937754;28;20051;-70
2023/08/08 08:18:04;;;;;;;13.27;6.93;;;;;;;32.41;40.95;98524.81;4938773;28;20047;-69
2023/08/08 08:20:33;;;;;;;11.82;7.50;;;;;;;33.49;38.69;98520.59;4938776;28;20042;-69
2023/08/08 08:23:00;;;;;;;10.63;6.32;;;;;;;34.46;37.64;98470.88;4938854;28;20053;-69
2023/08/08 08:25:31;;;;;;;11.57;6.47;;;;;;;35.05;36.47;98475.19;4938398;28;20062;-70
2023/08/08 08:28:00;;;;;;;10.85;7.30;;;;;;;35.81;35.32;98482.44;4938721;28;20055;-70
2023/08/08 08:30:28;;;;;;;9.82;7.25;;;;;;;36.25;34.14;98474.47;4938726;28;20514;-68
2023/08/08 08:32:56;;;;;;;9.98;7.50;;;;;;;36.28;34.12;98471.09;4938548;28;20485;-69
2023/08/08 08:35:26;;;;;;;15.90;6.95;;;;;;;35.90;34.19;98467.56;4938653;28;20486;-67
2023/08/08 08:37:54;;;;;;;12.63;7.68;;;;;;;36.15;34.40;98476.59;4937077;28;20070;-71
2023/08/08 08:40:25;;;;;;;11.60;7.80;;;;;;;36.56;33.50;98485.84;4931262;28;20035;-67
2023/08/08 08:43:00;;;;;;;9.65;7.30;;;;;;;36.72;33.63;98497.50;4918011;29;20058;-67
2023/08/08 08:45:33;;;;;;;15.25;8.50;;;;;;;37.11;32.55;98496.16;4925043;28;20045;-69
2023/08/08 08:48:01;;;;;;;12.10;8.02;;;;;;;37.59;32.25;98490.91;4938245;28;20505;-68
2023/08/08 08:50:33;;;;;;;9.07;8.10;;;;;;;37.72;32.08;98488.13;4938170;28;20520;-69
2023/08/08 08:53:01;;;;;;;10.25;8.18;;;;;;;37.51;32.23;98500.81;4938097;28;20053;-70
2023/08/08 08:55:32;;;;;;;10.55;8.18;;;;;;;37.24;32.42;98492.56;4938271;28;20042;-68
2023/08/08 08:57:57;;;;;;;15.02;9.30;;;;;;;37.52;32.45;98484.97;4938038;28;20050;-68
2023/08/08 09:00:24;;;;;;;12.65;8.35;;;;;;;38.81;30.92;98483.09;4936952;28;20042;-71
2023/08/08 09:02:50;;;;;;;20.65;16.73;;;;;;;39.33;29.58;98478.47;4936815;28;20043;-70
2023/08/08 09:05:21;;;;;;;14.32;8.90;;;;;;;38.98;29.57;98483.16;4936466;28;20046;-70
2023/08/08 09:07:51;;;;;;;14.05;7.97;;;;;;;38.29;30.89;98477.22;4937944;28;20521;-70
2023/08/08 09:10:21;;;;;;;11.20;8.68;;;;;;;37.55;31.67;98484.34;4951178;28;20039;-70
2023/08/08 09:12:50;;;;;;;11.05;8.55;;;;;;;36.92;32.55;98483.19;4938121;28;20719;-69
2023/08/08 09:15:18;;;;;;;12.02;8.57;;;;;;;36.27;33.72;98472.22;4936412;28;20395;-69
2023/08/08 09:17:48;;;;;;;12.90;7.43;;;;;;;35.58;34.32;98509.94;4952090;28;20055;-69
2023/08/08 09:20:15;;;;;;;11.13;7.60;;;;;;;35.04;34.84;98515.09;4937682;28;20050;-69
2023/08/08 09:22:44;;;;;;;12.63;8.25;;;;;;;34.75;36.18;98513.22;4937927;28;20042;-68
2023/08/08 09:25:10;;;;;;;12.85;7.82;;;;;;;34.33;36.40;98526.91;4937798;28;20073;-68
2023/08/08 09:27:36;;;;;;;13.18;9.27;;;;;;;33.72;36.65;98533.72;4936325;28;20528;-68
2023/08/08 09:30:04;;;;;;;12.45;8.93;;;;;;;32.85;38.14;98539.91;4936508;28;20058;-69
2023/08/08 09:32:31;;;;;;;12.15;8.65;;;;;;;32.04;39.42;98538.06;4937451;28;20050;-68
2023/08/08 09:34:58;;;;;;;14.88;8.15;;;;;;;31.50;40.80;98534.91;4935610;28;20059;-68
2023/08/08 09:37:49;;;;;;;13.07;8.55;;;;;;;31.21;41.38;98538.16;4936404;28;20506;-70
2023/08/08 09:40:18;;;;;;;11.93;8.45;;;;;;;30.96;42.42;98543.50;4937252;28;20046;-68
2023/08/08 09:42:45;;;;;;;15.52;7.72;;;;;;;30.69;42.90;98535.41;4935234;28;20062;-69
2023/08/08 09:45:12;;;;;;;15.57;8.57;;;;;;;30.47;43.88;98560.28;4916775;29;20410;-67
2023/08/08 09:47:38;;;;;;;12.00;8.80;;;;;;;30.38;43.67;98544.50;4917972;29;20387;-68
2023/08/08 09:50:04;;;;;;;9.48;8.00;;;;;;;30.43;44.01;98550.06;4932884;28;20050;-68
2023/08/08 09:52:33;;;;;;;11.63;8.68;;;;;;;30.51;44.37;98555.06;4918086;29;20418;-68
2023/08/08 09:54:59;;;;;;;11.32;7.93;;;;;;;30.62;44.11;98541.13;4917790;29;20047;-68
2023/08/08 10:00:20;;;;;;;10.25;7.65;;;;;;;30.90;43.38;98506.06;4926482;28;20050;-70
2023/08/08 10:02:47;;;;;;;10.23;8.35;;;;;;;30.64;43.86;98554.63;4940182;28;20047;-70
2023/08/08 10:05:15;;;;;;;11.02;8.57;;;;;;;30.30;44.11;98552.16;4935361;28;20034;-70
2023/08/08 10:08:09;;;;;;;14.23;8.70;;;;;;;30.13;44.42;98548.75;4933570;28;20046;-69
2023/08/08 10:10:37;;;;;;;10.38;8.60;;;;;;;29.60;45.30;98549.56;4934047;28;20038;-70
2023/08/08 10:13:03;;;;;;;15.75;9.18;;;;;;;29.41;45.96;98567.50;4916540;28;20778;-69
2023/08/08 10:19:05;;;;;;;23.05;10.95;;;;;;;29.17;46.84;98558.69;4928890;28;20047;-70
2023/08/08 10:21:58;;;;;;;13.38;9.45;;;;;;;29.01;47.83;98556.84;4935863;28;20610;-71
2023/08/08 10:24:24;;;;;;;12.95;9.13;;;;;;;28.68;47.98;98557.72;4924359;28;20061;-68
2023/08/08 10:26:57;;;;;;;16.20;9.23;;;;;;;28.59;48.00;98554.56;4935389;28;20059;-70
2023/08/08 10:29:28;;;;;;;11.35;8.55;;;;;;;28.38;48.30;98558.94;4936358;28;20057;-67
2023/08/08 10:32:25;;;;;;;9.98;8.18;;;;;;;28.25;48.93;98574.88;4916061;28;20529;-70
2023/08/08 10:35:01;;;;;;;10.88;8.15;;;;;;;28.01;49.38;98572.25;4935734;28;20066;-69
2023/08/08 10:37:33;;;;;;;13.65;9.32;;;;;;;27.81;50.56;98569.19;4933979;28;20058;-70
2023/08/08 10:40:00;;;;;;;13.38;8.75;;;;;;;27.55;51.14;98578.81;4934073;28;20046;-70
2023/08/08 10:42:28;;;;;;;13.48;8.52;;;;;;;27.35;52.00;98581.13;4935248;28;20047;-70
2023/08/08 10:44:59;;;;;;;11.25;8.48;;;;;;;27.28;52.35;98580.47;4933584;28;20038;-70
2023/08/08 10:47:53;;;;;;;18.48;9.65;;;;;;;27.34;52.08;98579.47;4936650;28;20493;-69
2023/08/08 10:50:23;;;;;;;14.35;9.68;;;;;;;27.09;52.94;98594.28;4936111;28;20038;-68
2023/08/08 10:52:51;;;;;;;18.98;8.95;;;;;;;26.97;53.84;98587.22;4935467;28;20521;-69
2023/08/08 10:55:34;;;;;;;11.43;8.48;;;;;;;27.01;54.50;98591.94;4936212;28;20047;-69
2023/08/08 10:58:07;;;;;;;13.75;8.65;;;;;;;26.95;53.59;98595.66;4933604;28;20042;-70
2023/08/08 11:00:35;;;;;;;14.43;8.15;;;;;;;26.89;53.77;98599.28;4935887;28;20042;-68
2023/08/08 11:03:26;;;;;;;14.80;9.02;;;;;;;27.00;53.64;98595.75;4919005;28;20050;-69
2023/08/08 11:06:42;;;;;;;11.00;8.57;;;;;;;26.82;53.42;98603.25;4929616;28;20057;-68
2023/08/08 11:09:12;;;;;;;14.63;8.60;;;;;;;26.73;54.18;98600.88;4934093;28;20057;-68
2023/08/08 11:11:40;;;;;;;14.27;8.23;;;;;;;26.67;54.55;98598.25;4932338;28;20058;-68
2023/08/08 11:14:14;;;;;;;11.68;8.77;;;;;;;26.62;54.72;98587.22;4932041;28;20512;-69
2023/08/08 11:17:07;;;;;;;18.10;9.88;;;;;;;26.73;55.36;98605.50;4936356;28;20778;-69
2023/08/08 11:22:32;;;;;;;19.35;9.30;;;;;;;26.50;55.10;98602.78;4918744;28;20050;-69
2023/08/08 11:25:03;;;;;;;15.77;8.70;;;;;;;26.45;55.19;98597.19;4933215;28;20481;-67
2023/08/08 11:27:30;;;;;;;17.23;8.50;;;;;;;26.46;55.67;98604.31;4931706;28;20054;-66
2023/08/08 11:29:57;;;;;;;93.88;65.63;;;;;;;26.48;55.62;98607.66;4933680;28;20055;-65
2023/08/08 11:32:25;;;;;;;23.25;14.85;;;;;;;26.51;55.73;98594.34;4931361;28;20050;-65
2023/08/08 11:34:55;;;;;;;17.08;10.57;;;;;;;26.58;55.80;98603.25;4934065;28;20050;-65
2023/08/08 11:40:16;;;;;;;15.40;9.38;;;;;;;26.87;54.48;98606.06;4931219;28;20046;-65
2023/08/08 11:42:46;;;;;;;16.23;10.15;;;;;;;27.09;53.98;98610.72;4935514;28;20061;-66
2023/08/08 11:45:15;;;;;;;16.85;8.98;;;;;;;27.33;53.40;98605.19;4932797;28;20073;-65
2023/08/08 11:47:41;;;;;;;14.85;9.13;;;;;;;27.51;53.21;98602.28;4933364;28;20046;-66
2023/08/08 11:56:01;;;;;;;12.68;9.63;;;;;;;27.85;51.88;98613.34;4936788;28;20170;-65
2023/08/08 11:58:29;;;;;;;12.57;9.15;;;;;;;27.69;51.79;98596.63;4920484;28;20050;-66
2023/08/08 12:00:57;;;;;;;15.05;9.00;;;;;;;27.50;52.54;98595.13;4935364;28;20046;-65
2023/08/08 12:03:26;;;;;;;14.55;8.88;;;;;;;27.33;52.77;98600.53;4936281;28;20045;-67
2023/08/08 12:05:54;;;;;;;15.88;9.63;;;;;;;27.25;52.78;98602.81;4938013;28;20047;-66
2023/08/08 12:08:20;;;;;;;20.90;9.68;;;;;;;27.17;53.32;98595.00;4936756;28;20066;-68
2023/08/08 12:10:56;;;;;;;10.60;9.00;;;;;;;27.26;53.44;98604.50;4938759;28;20170;-67
2023/08/08 12:13:26;;;;;;;18.65;11.45;;;;;;;27.24;52.75;98606.63;4936091;28;20047;-68
2023/08/08 12:15:59;;;;;;;20.83;11.45;;;;;;;27.10;52.66;98637.00;4936680;28;20058;-68
2023/08/08 12:18:25;;;;;;;14.35;10.65;;;;;;;27.02;53.44;98614.66;4938748;28;20077;-66
2023/08/08 12:20:54;;;;;;;15.48;10.48;;;;;;;27.00;53.34;98603.94;4937621;28;20046;-66
2023/08/08 12:23:23;;;;;;;15.55;11.05;;;;;;;27.13;53.66;98615.72;4935045;28;20054;-66